HELX - Luxor Intl. Airport

HELX 180800Z 00000KT 6000 NSC 12/04 Q1022 NOSIG


Sceneries:

  • [FS2004] FREEWARE: AIG LUXOR 2011 - Download from AVSIM

 


Briefing & Aerodrome Charts:

To be uploaded soon! Stay tuned!


Our Partners

VATSIM

VATSIM is the Virtual Air Traffic Simulation network, connecting people from around the world flying online or acting as virtual Air Traffic Controllers.

VATME

VATME - VATSIM Middle East Divison is part of the Africa and Middle East Region on the VATSIM Network.

Egyptair Virtual

Egyptair Virtual simulates the real life operations of Egyptair yet is not releated to the actual Egyptair.